createdAt,value
2022-08-02T00:00:47.339Z,100157.47
2022-08-02T00:03:16.115Z,100158.31
2022-08-02T00:05:53.273Z,100164.06
2022-08-02T00:08:22.772Z,100160.53
2022-08-02T00:10:51.623Z,100162.44
2022-08-02T00:13:20.203Z,100166.59
2022-08-02T00:15:50.277Z,100167.25
2022-08-02T00:18:18.911Z,100169.31
2022-08-02T00:20:47.601Z,100167.66
2022-08-02T00:23:16.235Z,100164.13
2022-08-02T00:25:55.388Z,100164.78
2022-08-02T00:28:27.275Z,100168.34
2022-08-02T00:30:58.522Z,100165.06
2022-08-02T00:34:05.317Z,100163.25
2022-08-02T00:36:16.541Z,100157.66
2022-08-02T00:38:46.438Z,100165.75
2022-08-02T00:41:17.537Z,100173.00
2022-08-02T00:43:46.519Z,100176.50
2022-08-02T00:46:17.088Z,100175.44
2022-08-02T00:48:46.147Z,100179.16
2022-08-02T00:51:15.511Z,100175.06
2022-08-02T00:53:44.481Z,100180.25
2022-08-02T00:56:13.157Z,100179.81
2022-08-02T00:58:41.546Z,100179.63
2022-08-02T01:01:10.306Z,100181.94
2022-08-02T01:03:40.434Z,100187.72
2022-08-02T01:06:12.354Z,100193.75
2022-08-02T01:08:41.377Z,100194.16
2022-08-02T01:11:12.656Z,100200.75
2022-08-02T01:13:41.083Z,100203.44
2022-08-02T01:16:16.206Z,100200.75
2022-08-02T01:18:49.627Z,100194.16
2022-08-02T01:21:35.561Z,100193.53
2022-08-02T01:24:20.750Z,100183.81
2022-08-02T01:26:52.616Z,100187.31
2022-08-02T01:29:26.309Z,100185.28
2022-08-02T01:31:59.044Z,100182.38
2022-08-02T01:34:33.355Z,100185.91
2022-08-02T01:37:05.113Z,100189.41
2022-08-02T01:39:35.884Z,100184.25
2022-08-02T01:42:05.962Z,100187.75
2022-08-02T01:44:38.312Z,100192.69
2022-08-02T01:47:10.293Z,100191.25
2022-08-02T01:49:41.443Z,100200.56
2022-08-02T01:52:22.940Z,100198.72
2022-08-02T01:54:55.814Z,100195.81
2022-08-02T01:57:24.922Z,100199.13
2022-08-02T01:59:57.590Z,100199.53
2022-08-02T02:02:30.055Z,100200.78
2022-08-02T02:05:03.354Z,100200.34
2022-08-02T02:07:34.329Z,100202.00
2022-08-02T02:10:04.559Z,100201.59
2022-08-02T02:12:35.037Z,100204.25
2022-08-02T02:15:06.037Z,100211.44
2022-08-02T02:17:52.034Z,100193.66
2022-08-02T02:20:24.200Z,100199.00
2022-08-02T02:22:52.878Z,100198.19
2022-08-02T02:25:35.989Z,100205.59
2022-08-02T02:28:09.703Z,100210.16
2022-08-02T02:30:41.484Z,100214.06
2022-08-02T02:33:11.737Z,100219.22
2022-08-02T02:35:40.279Z,100213.72
2022-08-02T02:38:13.302Z,100212.50
2022-08-02T02:40:42.724Z,100209.63
2022-08-02T02:43:12.477Z,100206.97
2022-08-02T02:45:43.420Z,100210.69
2022-08-02T02:48:13.011Z,100213.97
2022-08-02T02:50:43.220Z,100214.59
2022-08-02T02:53:12.739Z,100212.75
2022-08-02T02:55:42.203Z,100210.25
2022-08-02T02:58:31.568Z,100208.00
2022-08-02T03:01:19.570Z,100203.66
2022-08-02T03:03:48.406Z,100192.47
2022-08-02T03:06:17.259Z,100194.53
2022-08-02T03:08:45.976Z,100202.34
2022-08-02T03:11:16.169Z,100196.34
2022-08-02T03:13:45.062Z,100196.59
2022-08-02T03:16:15.150Z,100203.84
2022-08-02T03:18:45.293Z,100196.63
2022-08-02T03:21:14.988Z,100193.72
2022-08-02T03:23:44.524Z,100205.72
2022-08-02T03:26:13.751Z,100211.50
2022-08-02T03:28:43.078Z,100215.63
2022-08-02T03:31:12.799Z,100217.91
2022-08-02T03:33:43.196Z,100216.47
2022-08-02T03:36:12.468Z,100212.97
2022-08-02T03:38:41.928Z,100211.94
2022-08-02T03:41:11.773Z,100220.19
2022-08-02T03:43:41.240Z,100207.56
2022-08-02T03:46:10.981Z,100214.81
2022-08-02T03:48:40.081Z,100219.97
2022-08-02T03:51:10.488Z,100217.44
2022-08-02T03:53:39.890Z,100221.72
2022-08-02T03:56:08.918Z,100227.44
2022-08-02T03:58:37.405Z,100230.75
2022-08-02T04:01:06.314Z,100228.63
2022-08-02T04:03:35.270Z,100222.19
2022-08-02T04:06:05.009Z,100231.19
2022-08-02T04:08:38.285Z,100230.75
2022-08-02T04:11:25.396Z,100230.09
2022-08-02T04:13:56.747Z,100231.47
2022-08-02T04:16:31.177Z,100239.88
2022-08-02T04:19:02.441Z,100234.66
2022-08-02T04:21:41.382Z,100233.34
2022-08-02T04:24:24.403Z,100236.31
2022-08-02T04:26:54.882Z,100237.34
2022-08-02T04:29:27.758Z,100242.91
2022-08-02T04:31:56.095Z,100240.44
2022-08-02T04:34:25.048Z,100241.84
2022-08-02T04:36:53.900Z,100246.00
2022-08-02T04:39:23.996Z,100245.50
2022-08-02T04:41:57.440Z,100247.16
2022-08-02T04:44:26.957Z,100253.59
2022-08-02T04:46:56.065Z,100253.16
2022-08-02T04:49:24.870Z,100254.72
2022-08-02T04:51:53.645Z,100256.94
2022-08-02T04:54:25.909Z,100266.00
2022-08-02T04:56:54.754Z,100270.09
2022-08-02T04:59:23.571Z,100268.88
2022-08-02T05:01:51.883Z,100274.75
2022-08-02T05:04:20.668Z,100273.28
2022-08-02T05:06:49.303Z,100279.66
2022-08-02T05:09:18.002Z,100283.88
2022-08-02T05:11:53.356Z,100274.19
2022-08-02T05:14:24.387Z,100283.09
2022-08-02T05:16:52.704Z,100285.84
2022-08-02T05:19:21.450Z,100291.28
2022-08-02T05:21:50.208Z,100291.78
2022-08-02T05:24:18.987Z,100293.69
2022-08-02T05:26:49.113Z,100289.28
2022-08-02T05:29:17.947Z,100295.19
2022-08-02T05:31:47.238Z,100291.91
2022-08-02T05:34:16.058Z,100300.28
2022-08-02T05:36:45.048Z,100299.22
2022-08-02T05:39:19.042Z,100304.28
2022-08-02T05:41:49.466Z,100298.66
2022-08-02T05:44:18.397Z,100305.59
2022-08-02T05:46:46.927Z,100316.75
2022-08-02T05:49:16.709Z,100306.63
2022-08-02T05:51:53.365Z,100313.00
2022-08-02T05:54:24.978Z,100303.34
2022-08-02T05:56:58.284Z,100307.56
2022-08-02T05:59:33.430Z,100313.88
2022-08-02T06:02:05.850Z,100308.06
2022-08-02T06:04:39.293Z,100311.50
2022-08-02T06:07:10.748Z,100314.03
2022-08-02T06:09:41.468Z,100306.16
2022-08-02T06:12:13.605Z,100310.69
2022-08-02T06:14:43.316Z,100315.75
2022-08-02T06:17:12.618Z,100305.88
2022-08-02T06:19:51.532Z,100315.50
2022-08-02T06:22:35.816Z,100308.03
2022-08-02T06:25:06.449Z,100310.44
2022-08-02T06:27:42.649Z,100310.47
2022-08-02T06:30:12.164Z,100310.47
2022-08-02T06:32:41.219Z,100315.22
2022-08-02T06:35:10.405Z,100315.56
2022-08-02T06:37:45.685Z,100323.94
2022-08-02T06:40:20.374Z,100322.81
2022-08-02T06:42:54.047Z,100330.53
2022-08-02T06:45:22.926Z,100329.94
2022-08-02T06:47:51.624Z,100333.97
2022-08-02T06:50:20.387Z,100329.63
2022-08-02T06:52:48.695Z,100332.91
2022-08-02T06:55:17.718Z,100334.84
2022-08-02T06:57:46.370Z,100337.16
2022-08-02T07:00:17.057Z,100336.94
2022-08-02T07:02:46.570Z,100339.47
2022-08-02T07:05:15.779Z,100342.66
2022-08-02T07:07:44.310Z,100342.81
2022-08-02T07:10:13.574Z,100340.44
2022-08-02T07:12:42.318Z,100345.66
2022-08-02T07:15:12.691Z,100345.16
2022-08-02T07:17:43.155Z,100355.06
2022-08-02T07:20:13.614Z,100359.91
2022-08-02T07:22:42.228Z,100363.16
2022-08-02T07:25:11.426Z,100364.63
2022-08-02T07:27:40.368Z,100355.19
2022-08-02T07:30:10.235Z,100355.63
2022-08-02T07:32:39.380Z,100357.28
2022-08-02T07:35:10.505Z,100355.53
2022-08-02T07:37:54.859Z,100359.38
2022-08-02T07:40:25.818Z,100358.19
2022-08-02T07:43:02.363Z,100357.75
2022-08-02T07:45:32.677Z,100351.63
2022-08-02T07:48:01.883Z,100347.06
2022-08-02T07:50:32.126Z,100352.19
2022-08-02T07:53:01.028Z,100352.78
2022-08-02T07:55:39.086Z,100353.88
2022-08-02T07:58:11.226Z,100356.06
2022-08-02T08:00:43.283Z,100345.97
2022-08-02T08:03:12.001Z,100351.16
2022-08-02T08:05:42.265Z,100351.69
2022-08-02T08:08:16.920Z,100352.53
2022-08-02T08:10:46.493Z,100356.63
2022-08-02T08:13:15.600Z,100359.59
2022-08-02T08:15:51.786Z,100362.81
2022-08-02T08:18:22.179Z,100358.56
2022-08-02T08:20:52.496Z,100353.38
2022-08-02T08:23:21.184Z,100354.44
2022-08-02T08:25:49.681Z,100352.94
2022-08-02T08:28:18.420Z,100361.59
2022-08-02T08:30:47.699Z,100366.59
2022-08-02T08:33:16.588Z,100363.00
2022-08-02T08:35:45.318Z,100353.66
2022-08-02T08:38:16.158Z,100356.72
2022-08-02T08:40:44.954Z,100368.81
2022-08-02T08:43:15.012Z,100360.06
2022-08-02T08:45:45.311Z,100360.31
2022-08-02T08:48:30.765Z,100363.16
2022-08-02T08:51:03.579Z,100362.06
2022-08-02T08:53:36.430Z,100366.06
2022-08-02T08:56:06.303Z,100361.34
2022-08-02T08:58:34.761Z,100365.22
2022-08-02T09:01:03.701Z,100360.66
2022-08-02T09:03:33.982Z,100362.25
2022-08-02T09:06:05.019Z,100364.09
2022-08-02T09:08:35.298Z,100369.00
2022-08-02T09:11:13.891Z,100367.16
2022-08-02T09:13:50.815Z,100368.44
2022-08-02T09:16:29.502Z,100371.28
2022-08-02T09:18:58.893Z,100366.63
2022-08-02T09:32:46.699Z,100379.03
2022-08-02T09:35:18.608Z,100372.69
2022-08-02T09:37:49.357Z,100377.00
2022-08-02T09:40:37.364Z,100380.06
2022-08-02T09:43:09.938Z,100376.91
2022-08-02T09:45:40.917Z,100376.50
2022-08-02T09:48:12.643Z,100381.03
2022-08-02T09:50:42.850Z,100378.34
2022-08-02T09:53:15.094Z,100380.03
2022-08-02T09:55:44.584Z,100384.75
2022-08-02T09:58:19.917Z,100376.97
2022-08-02T10:00:57.359Z,100381.47
2022-08-02T10:03:34.884Z,100377.03
2022-08-02T10:06:04.544Z,100374.97
2022-08-02T10:08:34.130Z,100374.63
2022-08-02T10:11:03.879Z,100373.75
2022-08-02T10:13:33.782Z,100370.06
2022-08-02T10:16:04.941Z,100368.72
2022-08-02T10:18:39.232Z,100364.41
2022-08-02T10:21:09.506Z,100367.06
2022-08-02T10:23:41.198Z,100370.25
2022-08-02T10:26:10.498Z,100365.56
2022-08-02T10:28:39.120Z,100375.56
2022-08-02T10:31:09.681Z,100376.19
2022-08-02T10:33:39.893Z,100368.78
2022-08-02T10:36:10.184Z,100373.84
2022-08-02T10:38:39.004Z,100374.53
2022-08-02T10:41:08.224Z,100373.94
2022-08-02T10:43:49.480Z,100370.50
2022-08-02T10:46:31.489Z,100354.63
2022-08-02T10:49:36.133Z,100361.56
2022-08-02T10:52:20.328Z,100367.75
2022-08-02T10:54:57.151Z,100365.06
2022-08-02T10:57:27.567Z,100358.66
2022-08-02T10:59:58.437Z,100370.50
2022-08-02T11:02:40.747Z,100360.41
2022-08-02T11:05:11.598Z,100365.22
2022-08-02T11:07:42.146Z,100366.75
2022-08-02T11:10:36.857Z,100362.41
2022-08-02T11:13:08.359Z,100353.97
2022-08-02T11:15:51.321Z,100345.13
2022-08-02T11:18:22.913Z,100348.81
2022-08-02T11:21:22.310Z,100351.19
2022-08-02T11:23:51.006Z,100349.94
2022-08-02T11:26:45.566Z,100351.28
2022-08-02T11:29:15.902Z,100351.31
2022-08-02T11:31:46.380Z,100347.72
2022-08-02T11:34:36.813Z,100354.03
2022-08-02T11:37:06.749Z,100353.56
2022-08-02T11:39:35.382Z,100356.88
2022-08-02T11:42:04.092Z,100362.97
2022-08-02T11:44:42.524Z,100357.91
2022-08-02T11:47:11.269Z,100367.75
2022-08-02T11:49:41.199Z,100366.75
2022-08-02T11:52:11.453Z,100361.97
2022-08-02T11:54:42.277Z,100370.91
2022-08-02T11:57:19.868Z,100375.97
2022-08-02T11:59:51.087Z,100369.00
2022-08-02T12:02:20.751Z,100364.78
2022-08-02T12:04:58.858Z,100370.94
2022-08-02T12:07:34.610Z,100351.75
2022-08-02T12:10:08.142Z,100359.44
2022-08-02T12:12:48.983Z,100360.88
2022-08-02T12:15:23.791Z,100359.91
2022-08-02T12:18:10.313Z,100358.69
2022-08-02T12:20:40.539Z,100353.84
2022-08-02T12:23:10.673Z,100361.16
2022-08-02T12:25:38.759Z,100360.75
2022-08-02T12:28:18.423Z,100354.19
2022-08-02T12:30:50.617Z,100353.03
2022-08-02T12:33:19.496Z,100356.56
2022-08-02T12:35:50.081Z,100349.78
2022-08-02T12:38:18.867Z,100352.09
2022-08-02T12:40:47.987Z,100349.31
2022-08-02T12:43:22.256Z,100356.28
2022-08-02T12:45:53.191Z,100354.59
2022-08-02T12:48:38.369Z,100354.47
2022-08-02T12:51:23.489Z,100361.28
2022-08-02T12:53:59.948Z,100357.38
2022-08-02T12:56:30.984Z,100352.56
2022-08-02T12:59:00.087Z,100351.22
2022-08-02T13:01:29.916Z,100354.31
2022-08-02T13:04:11.466Z,100355.16
2022-08-02T13:06:45.064Z,100360.78
2022-08-02T13:09:17.116Z,100357.44
2022-08-02T13:11:46.407Z,100347.56
2022-08-02T13:14:15.420Z,100362.69
2022-08-02T13:16:45.275Z,100354.44
2022-08-02T13:19:15.561Z,100356.44
2022-08-02T13:22:11.314Z,100368.22
2022-08-02T13:24:40.095Z,100366.94
2022-08-02T13:27:25.326Z,100350.88
2022-08-02T13:29:55.323Z,100358.50
2022-08-02T13:32:25.198Z,100361.03
2022-08-02T13:34:53.832Z,100366.56
2022-08-02T13:37:24.036Z,100362.75
2022-08-02T13:40:12.218Z,100364.31
2022-08-02T13:42:41.540Z,100363.56
2022-08-02T13:45:12.609Z,100355.41
2022-08-02T13:47:57.630Z,100355.13
2022-08-02T13:50:32.385Z,100356.84
2022-08-02T13:53:02.449Z,100362.69
2022-08-02T13:55:31.112Z,100367.03
2022-08-02T13:57:59.840Z,100360.53
2022-08-02T14:00:35.142Z,100359.06
2022-08-02T14:03:08.595Z,100353.81
2022-08-02T14:05:48.451Z,100343.97
2022-08-02T14:08:20.396Z,100347.69
2022-08-02T14:10:49.176Z,100344.75
2022-08-02T14:13:17.967Z,100343.00
2022-08-02T14:15:47.420Z,100352.25
2022-08-02T14:18:16.286Z,100351.84
2022-08-02T14:20:45.592Z,100355.50
2022-08-02T14:23:14.100Z,100350.28
2022-08-02T14:25:44.307Z,100351.94
2022-08-02T14:28:13.108Z,100356.06
2022-08-02T14:30:41.983Z,100343.78
2022-08-02T14:33:10.789Z,100337.78
2022-08-02T14:35:39.546Z,100337.75
2022-08-02T14:38:08.404Z,100340.09
2022-08-02T14:40:36.834Z,100340.31
2022-08-02T14:43:08.305Z,100330.06
2022-08-02T14:45:40.713Z,100335.03
2022-08-02T14:48:13.240Z,100334.25
2022-08-02T14:50:41.993Z,100330.31
2022-08-02T14:53:12.091Z,100328.56
2022-08-02T14:55:42.944Z,100329.06
2022-08-02T14:58:13.619Z,100335.53
2022-08-02T15:00:43.826Z,100338.63
2022-08-02T15:03:13.127Z,100335.47
2022-08-02T15:05:41.890Z,100335.66
2022-08-02T15:08:10.726Z,100333.47
2022-08-02T15:10:39.072Z,100332.78
2022-08-02T15:13:07.802Z,100340.00
2022-08-02T15:15:43.134Z,100337.88
2022-08-02T15:18:13.795Z,100335.31
2022-08-02T15:20:46.234Z,100339.22
2022-08-02T15:23:37.334Z,100331.28
2022-08-02T15:26:06.369Z,100338.28
2022-08-02T15:28:35.432Z,100336.66
2022-08-02T15:31:05.791Z,100338.34
2022-08-02T15:33:34.582Z,100337.13
2022-08-02T15:36:06.769Z,100338.91
2022-08-02T15:38:36.217Z,100343.09
2022-08-02T15:41:05.553Z,100335.81
2022-08-02T15:43:59.829Z,100337.81
2022-08-02T15:46:30.604Z,100342.44
2022-08-02T15:49:00.086Z,100341.00
2022-08-02T15:51:28.905Z,100348.38
2022-08-02T15:53:57.745Z,100351.34
2022-08-02T15:56:26.639Z,100344.16
2022-08-02T15:58:56.090Z,100355.44
2022-08-02T16:01:37.642Z,100354.13
2022-08-02T16:04:08.371Z,100352.22
2022-08-02T16:06:37.898Z,100347.22
2022-08-02T16:09:07.424Z,100351.34
2022-08-02T16:11:36.206Z,100347.50
2022-08-02T16:14:05.183Z,100352.00
2022-08-02T16:16:36.315Z,100351.69
2022-08-02T16:19:47.400Z,100348.09
2022-08-02T16:21:56.334Z,100345.16
2022-08-02T16:24:26.315Z,100350.34
2022-08-02T16:26:55.063Z,100350.56
2022-08-02T16:29:23.780Z,100345.94
2022-08-02T16:31:53.636Z,100349.06
2022-08-02T16:34:22.354Z,100344.91
2022-08-02T16:36:51.112Z,100347.31
2022-08-02T16:39:19.734Z,100356.00
2022-08-02T16:41:52.092Z,100344.53
2022-08-02T16:44:29.288Z,100349.13
2022-08-02T16:47:01.718Z,100347.31
2022-08-02T16:50:06.909Z,100359.47
2022-08-02T16:52:20.136Z,100348.06
2022-08-02T16:54:49.751Z,100358.63
2022-08-02T16:57:19.837Z,100359.19
2022-08-02T16:59:57.499Z,100355.81
2022-08-02T17:02:28.794Z,100349.41
2022-08-02T17:04:57.157Z,100358.84
2022-08-02T17:08:15.681Z,100368.03
2022-08-02T17:10:19.033Z,100361.97
2022-08-02T17:12:51.423Z,100362.59
2022-08-02T17:16:07.774Z,100364.66
2022-08-02T17:18:10.937Z,100363.84
2022-08-02T17:20:39.754Z,100358.78
2022-08-02T17:23:08.973Z,100365.78
2022-08-02T17:25:45.087Z,100359.28
2022-08-02T17:28:21.610Z,100367.13
2022-08-02T17:31:00.848Z,100371.63
2022-08-02T17:33:30.905Z,100373.69
2022-08-02T17:36:01.008Z,100373.34
2022-08-02T17:38:31.387Z,100368.44
2022-08-02T17:41:00.861Z,100382.00
2022-08-02T17:43:32.777Z,100384.31
2022-08-02T17:46:02.625Z,100379.59
2022-08-02T17:48:55.031Z,100387.16
2022-08-02T17:51:32.986Z,100385.47
2022-08-02T17:54:13.806Z,100388.06
2022-08-02T17:56:42.995Z,100392.88
2022-08-02T17:59:20.941Z,100386.22
2022-08-02T18:01:53.067Z,100397.91
2022-08-02T18:04:27.673Z,100402.19
2022-08-02T18:06:59.033Z,100400.59
2022-08-02T18:09:33.209Z,100406.25
2022-08-02T18:12:03.565Z,100411.63
2022-08-02T18:14:32.254Z,100408.28
2022-08-02T18:17:03.427Z,100411.41
2022-08-02T18:19:42.308Z,100417.53
2022-08-02T18:22:24.975Z,100419.69
2022-08-02T18:24:55.458Z,100415.31
2022-08-02T18:27:24.208Z,100415.44
2022-08-02T18:30:03.980Z,100414.59
2022-08-02T18:33:53.965Z,100419.28
2022-08-02T18:35:24.744Z,100419.50
2022-08-02T18:38:03.404Z,100423.34
2022-08-02T18:40:32.771Z,100429.31
2022-08-02T18:43:03.434Z,100429.66
2022-08-02T18:46:04.571Z,100432.47
2022-08-02T18:48:21.355Z,100436.31
2022-08-02T18:50:52.386Z,100443.09
2022-08-02T18:53:39.174Z,100442.78
2022-08-02T18:56:20.013Z,100448.50
2022-08-02T18:58:54.433Z,100443.41
2022-08-02T19:01:50.797Z,100445.13
2022-08-02T19:04:27.687Z,100448.50
2022-08-02T19:07:07.422Z,100445.66
2022-08-02T19:09:40.141Z,100455.94
2022-08-02T19:12:11.745Z,100448.13
2022-08-02T19:14:41.266Z,100454.19
2022-08-02T19:17:15.933Z,100457.56
2022-08-02T19:19:58.672Z,100454.72
2022-08-02T19:22:29.113Z,100452.09
2022-08-02T19:25:01.030Z,100450.06
2022-08-02T19:27:32.228Z,100450.09
2022-08-02T19:30:03.198Z,100453.25
2022-08-02T19:32:41.391Z,100455.19
2022-08-02T19:35:29.643Z,100455.00
2022-08-02T19:38:12.797Z,100456.69
2022-08-02T19:40:43.049Z,100456.09
2022-08-02T19:44:21.966Z,100456.31
2022-08-02T19:46:00.734Z,100459.47
2022-08-02T19:48:30.064Z,100458.25
2022-08-02T19:51:01.322Z,100453.13
2022-08-02T19:53:47.757Z,100450.25
2022-08-02T19:56:25.200Z,100449.09
2022-08-02T19:58:55.071Z,100452.03
2022-08-02T20:01:36.620Z,100448.47
2022-08-02T20:04:13.446Z,100447.25
2022-08-02T20:06:45.903Z,100450.38
2022-08-02T20:09:21.152Z,100459.75
2022-08-02T20:11:54.459Z,100452.09
2022-08-02T20:17:13.246Z,100454.66
2022-08-02T20:19:42.767Z,100460.69
2022-08-02T20:22:16.150Z,100466.34
2022-08-02T20:24:46.936Z,100454.75
2022-08-02T20:27:19.375Z,100458.50
2022-08-02T20:29:52.543Z,100462.88
2022-08-02T20:32:24.186Z,100461.03
2022-08-02T20:34:53.194Z,100459.59
2022-08-02T20:38:00.089Z,100465.19
2022-08-02T20:40:16.601Z,100462.72
2022-08-02T20:42:47.631Z,100459.41
2022-08-02T20:45:17.364Z,100458.19
2022-08-02T20:47:50.963Z,100466.47
2022-08-02T20:50:39.125Z,100465.25
2022-08-02T20:53:08.520Z,100473.94
2022-08-02T20:55:55.667Z,100467.56
2022-08-02T20:58:26.467Z,100480.81
2022-08-02T21:00:59.522Z,100479.81
2022-08-02T21:03:39.176Z,100469.88
2022-08-02T21:06:09.103Z,100467.78
2022-08-02T21:08:38.478Z,100469.88
2022-08-02T21:11:12.703Z,100477.72
2022-08-02T21:13:46.754Z,100470.91
2022-08-02T21:16:31.673Z,100474.81
2022-08-02T21:19:00.652Z,100472.78
2022-08-02T21:21:29.994Z,100472.16
2022-08-02T21:23:59.957Z,100474.22
2022-08-02T21:26:32.221Z,100474.00
2022-08-02T21:29:03.637Z,100475.03
2022-08-02T21:31:35.582Z,100477.34
2022-08-02T21:34:07.545Z,100473.00
2022-08-02T21:36:50.929Z,100475.25
2022-08-02T21:39:20.590Z,100476.50
2022-08-02T21:41:51.206Z,100471.56
2022-08-02T21:44:22.240Z,100474.44
2022-08-02T21:46:52.010Z,100475.69
2022-08-02T21:49:40.544Z,100475.47
2022-08-02T21:52:10.245Z,100474.44
2022-08-02T21:54:39.816Z,100477.53
2022-08-02T21:57:15.251Z,100480.41
2022-08-02T21:59:46.182Z,100470.47
2022-08-02T22:02:15.543Z,100484.31
2022-08-02T22:04:47.977Z,100478.34
2022-08-02T22:07:24.047Z,100482.69
2022-08-02T22:09:53.947Z,100485.97
2022-08-02T22:12:27.134Z,100482.47
2022-08-02T22:14:56.533Z,100490.13
2022-08-02T22:17:51.271Z,100484.13
2022-08-02T22:23:04.991Z,100479.97
2022-08-02T22:25:41.870Z,100479.91
2022-08-02T22:28:37.093Z,100486.28
2022-08-02T22:31:05.568Z,100485.03
2022-08-02T22:34:00.732Z,100490.81
2022-08-02T22:36:30.749Z,100485.81
2022-08-02T22:39:00.041Z,100488.47
2022-08-02T22:42:01.800Z,100485.97
2022-08-02T22:44:20.276Z,100487.38
2022-08-02T22:46:50.024Z,100496.47
2022-08-02T22:49:38.410Z,100500.19
2022-08-02T22:52:08.541Z,100496.47
2022-08-02T22:54:39.608Z,100499.16
2022-08-02T22:57:11.100Z,100504.53
2022-08-02T22:58:54.954Z,100452.97
2022-08-02T22:59:41.916Z,100505.94
2022-08-02T23:02:10.503Z,100507.56
2022-08-02T23:04:39.473Z,100506.31
2022-08-02T23:07:08.159Z,100509.19
2022-08-02T23:09:36.847Z,100518.28
2022-08-02T23:12:06.218Z,100517.03
2022-08-02T23:14:34.897Z,100522.31
2022-08-02T23:17:22.565Z,100516.94
2022-08-02T23:19:53.520Z,100513.59
2022-08-02T23:22:30.101Z,100508.63
2022-08-02T23:25:01.928Z,100517.06
2022-08-02T23:27:30.950Z,100504.91
2022-08-02T23:29:59.737Z,100506.09
2022-08-02T23:32:30.459Z,100511.84
2022-08-02T23:34:59.054Z,100506.03
2022-08-02T23:37:28.410Z,100502.50
2022-08-02T23:40:39.456Z,100502.72
2022-08-02T23:43:13.372Z,100503.94
2022-08-02T23:45:45.318Z,100497.31
2022-08-02T23:48:15.442Z,100503.88
2022-08-02T23:50:44.151Z,100507.78
2022-08-02T23:53:12.835Z,100510.00
2022-08-02T23:55:41.257Z,100512.25
2022-08-02T23:58:09.945Z,100512.00
